Aviation Digital Data Service (ADDS)

Output produced by METARs form (0557 UTC 29 May 2017)
found at http://www.aviationweather.gov/adds/metars/
 
TAF TBPB 290500Z 2906/3006 10018KT 9999 SCT020 
     PROB30 
     TEMPO 2906/2910 5000 SHRA BKN014